Strona główna
METAR-TAF:

METAR-TAF

Lotnisko :

Port lotniczy Santa Rosa

Santa Rosa de Toay, Argentyna

Szerokość geograficzna: 36-34S, Długość geograficzna: 064-16W, wysokość: 190 m

Aktualna obserwacja pogody

Raport powstał 11 godziny i 55 minut temu, godzina 18:30 UTC
Wiatr 23 kt od północ
Temperatura 29°C
Wilgotność 62%
Ciśnienie 1013 hPa
Widzialność: 7000 m
Przerywane chmury na wysokości 3000 ft
Mało chmury na wysokości 4000 ft, Cumulonimbus.

METAR: SAZR 231830Z 36023KT 7000 BKN030 FEW040CB 29/21 Q1013 RMK CB OBS TO NE

czas: 03:25 (06:25 UTC)


TAF: brakujący

Obserwacja i prognoza pogody dla ponad 4000 lotnisk (raport METAR i TAF).

Dostępne stacje oznaczono żółtymi i czerwonymi punktami na mapie.

Najedź kursorem aby zobaczyć nazwę stacji.

Kliknij aby zobaczyć obserwacje i prognozy pogody.

Aby zmienić mapę: kliknij na zielony przycisk z czarnym krzyżykiem, aby powiększyć; na zielony przycisk z myślnikiem, aby pomniejszyć; na zielone strzałki, aby przejść do map sąsiednich.


METAR-TAF: